Time;durP1;ratioP1;P1;durP2;ratioP2;P2;SDS_P1;SDS_P2;PMS_P1;PMS_P2;Temp;Humidity;BMP_temperature;BMP_pressure;BME280_temperature;BME280_humidity;BME280_pressure;Samples;Min_cycle;Max_cycle;Signal;HPM_P1;HPM_P2
2022/06/27 00:01:23;;;;;;;5.83;2.40;;;;;;;;;;21090654;28;20425;-67
2022/06/27 00:11:25;;;;;;;2.63;1.70;;;;;;;;;;21087032;28;20055;-65
2022/06/27 00:21:27;;;;;;;3.63;1.93;;;;;;;;;;21087180;28;20076;-67
2022/06/27 00:31:28;;;;;;;4.07;1.97;;;;;;;;;;21086343;28;20071;-67
2022/06/27 00:41:30;;;;;;;4.33;1.70;;;;;;;;;;21086923;28;20044;-68
2022/06/27 00:51:32;;;;;;;5.97;2.17;;;;;;;;;;21084550;28;20052;-63
2022/06/27 01:01:33;;;;;;;4.63;1.90;;;;;;;;;;21083708;28;20119;-65
2022/06/27 01:11:35;;;;;;;4.40;1.77;;;;;;;;;;21083165;28;20044;-64
2022/06/27 01:21:44;;;;;;;4.07;2.03;;;;;;;;;;21082328;28;20333;-62
2022/06/27 01:31:46;;;;;;;4.63;2.22;;;;;;;;;;21082045;28;20347;-71
2022/06/27 01:41:54;;;;;;;4.43;1.75;;;;;;;;;;21080950;28;20047;-62
2022/06/27 01:52:03;;;;;;;3.50;2.00;;;;;;;;;;21080312;28;20484;-70
2022/06/27 02:02:11;;;;;;;4.85;1.95;;;;;;;;;;21080144;28;20048;-65
2022/06/27 02:12:18;;;;;;;3.63;2.03;;;;;;;;;;21079988;28;20056;-59
2022/06/27 02:22:23;;;;;;;3.17;1.90;;;;;;;;;;21078301;28;20075;-59
2022/06/27 02:32:28;;;;;;;3.10;1.88;;;;;;;;;;21083558;28;20331;-68
2022/06/27 02:42:30;;;;;;;3.53;1.90;;;;;;;;;;21105979;28;20047;-60
2022/06/27 02:52:35;;;;;;;5.45;2.10;;;;;;;;;;21105740;28;20091;-68
2022/06/27 03:02:41;;;;;;;5.70;2.20;;;;;;;;;;21105636;28;20052;-67
2022/06/27 03:12:45;;;;;;;5.50;1.70;;;;;;;;;;21104212;28;20097;-70
2022/06/27 03:22:48;;;;;;;4.25;1.63;;;;;;;;;;21102827;28;20128;-70
2022/06/27 03:32:50;;;;;;;4.13;1.90;;;;;;;;;;21103364;28;20091;-69
2022/06/27 03:42:53;;;;;;;3.90;1.77;;;;;;;;;;21101149;28;20040;-63
2022/06/27 03:52:55;;;;;;;3.78;1.77;;;;;;;;;;21088966;28;20309;-63
2022/06/27 04:02:57;;;;;;;3.17;1.53;;;;;;;;;;21088898;28;20048;-72
2022/06/27 04:12:58;;;;;;;3.10;1.70;;;;;;;;;;21087790;28;20075;-60
2022/06/27 04:23:00;;;;;;;3.92;1.67;;;;;;;;;;21087140;28;20048;-64
2022/06/27 04:33:02;;;;;;;4.90;1.58;;;;;;;;;;21084723;28;20055;-60
2022/06/27 04:43:04;;;;;;;3.28;1.40;;;;;;;;;;21086886;28;20059;-67
2022/06/27 04:53:06;;;;;;;2.22;1.60;;;;;;;;;;21086158;28;20056;-64
2022/06/27 05:03:09;;;;;;;2.53;1.30;;;;;;;;;;21082611;28;20052;-62
2022/06/27 05:13:11;;;;;;;4.47;2.00;;;;;;;;;;21082877;28;20126;-66
2022/06/27 05:23:12;;;;;;;4.22;2.15;;;;;;;;;;21082644;28;20405;-70
2022/06/27 05:33:14;;;;;;;2.97;1.40;;;;;;;;;;21081685;28;20108;-62
2022/06/27 05:43:17;;;;;;;4.85;1.50;;;;;;;;;;21081195;28;20407;-63
2022/06/27 05:53:20;;;;;;;2.70;1.30;;;;;;;;;;21080358;28;20070;-61
2022/06/27 06:03:22;;;;;;;3.10;1.40;;;;;;;;;;21080298;28;20098;-61
2022/06/27 06:13:25;;;;;;;2.90;1.40;;;;;;;;;;21077333;28;20147;-64
2022/06/27 06:23:27;;;;;;;2.33;1.27;;;;;;;;;;21078777;28;20044;-68
2022/06/27 06:33:29;;;;;;;6.00;1.27;;;;;;;;;;21077120;28;20052;-66
2022/06/27 06:43:31;;;;;;;5.45;1.20;;;;;;;;;;21077273;28;20055;-65
2022/06/27 06:53:35;;;;;;;3.38;1.00;;;;;;;;;;21076827;28;20487;-61
2022/06/27 07:03:38;;;;;;;3.00;1.20;;;;;;;;;;21075581;28;20465;-69
2022/06/27 07:13:40;;;;;;;3.20;1.63;;;;;;;;;;21079227;28;20051;-71
2022/06/27 07:23:42;;;;;;;2.73;0.90;;;;;;;;;;21097139;28;20530;-70
2022/06/27 07:33:51;;;;;;;4.18;1.13;;;;;;;;;;21090605;28;20052;-70
2022/06/27 07:43:54;;;;;;;6.43;1.10;;;;;;;;;;21089646;28;20096;-70
2022/06/27 07:53:56;;;;;;;4.07;1.45;;;;;;;;;;21127262;28;20382;-63
2022/06/27 08:03:58;;;;;;;2.07;0.70;;;;;;;;;;21090023;28;20048;-63
2022/06/27 08:14:03;;;;;;;3.50;1.00;;;;;;;;;;21088425;28;20408;-72
2022/06/27 08:24:11;;;;;;;8.15;1.95;;;;;;;;;;21084902;28;20438;-67
2022/06/27 08:34:14;;;;;;;3.28;1.20;;;;;;;;;;21085748;28;20123;-66
2022/06/27 08:44:17;;;;;;;4.43;1.20;;;;;;;;;;21051074;28;20043;-60
2022/06/27 08:54:19;;;;;;;3.72;1.00;;;;;;;;;;21081223;28;20139;-61
2022/06/27 09:04:20;;;;;;;4.20;1.27;;;;;;;;;;21081742;28;20071;-57
2022/06/27 09:14:31;;;;;;;4.93;1.27;;;;;;;;;;21079712;28;20074;-58
2022/06/27 09:24:34;;;;;;;6.30;1.60;;;;;;;;;;21077047;28;20048;-65
2022/06/27 09:34:36;;;;;;;6.88;1.40;;;;;;;;;;21079206;28;20466;-58
2022/06/27 09:44:43;;;;;;;2.47;1.02;;;;;;;;;;21071259;28;20131;-58
2022/06/27 09:54:46;;;;;;;5.07;1.42;;;;;;;;;;21075743;28;20055;-57
2022/06/27 10:04:51;;;;;;;5.22;1.40;;;;;;;;;;21053335;28;20271;-64
2022/06/27 10:15:12;;;;;;;5.43;1.45;;;;;;;;;;21044770;28;20093;-56
2022/06/27 10:25:26;;;;;;;7.68;1.70;;;;;;;;;;21076574;28;20059;-64
2022/06/27 10:35:29;;;;;;;2.33;1.35;;;;;;;;;;21075089;28;20515;-62
2022/06/27 10:45:31;;;;;;;4.60;1.73;;;;;;;;;;21072172;28;20128;-55
2022/06/27 10:55:33;;;;;;;;;;;;;;;;;;21079691;28;20048;-64
2022/06/27 11:05:35;;;;;;;;;;;;;;;;;;21089954;28;19928;-57
2022/06/27 11:15:38;;;;;;;3.58;1.80;;;;;;;;;;21089939;28;19920;-63
2022/06/27 11:25:41;;;;;;;4.72;1.60;;;;;;;;;;21088479;28;20084;-58
2022/06/27 11:35:43;;;;;;;4.93;1.60;;;;;;;;;;21086284;28;20051;-63
2022/06/27 11:45:45;;;;;;;6.18;1.67;;;;;;;;;;21088500;28;20071;-65
2022/06/27 11:55:47;;;;;;;4.07;1.98;;;;;;;;;;21085578;28;20044;-60
2022/06/27 12:05:49;;;;;;;3.28;1.45;;;;;;;;;;21086442;28;20052;-62
2022/06/27 12:15:58;;;;;;;3.33;1.90;;;;;;;;;;21087666;28;20052;-60
2022/06/27 12:26:00;;;;;;;5.07;1.35;;;;;;;;;;21087232;28;20135;-64
2022/06/27 12:36:02;;;;;;;3.17;1.20;;;;;;;;;;21086307;28;20160;-59
2022/06/27 12:46:05;;;;;;;3.08;1.30;;;;;;;;;;21086022;28;20082;-61
2022/06/27 12:56:08;;;;;;;3.47;1.15;;;;;;;;;;21085038;28;20520;-59
2022/06/27 13:06:10;;;;;;;3.08;1.30;;;;;;;;;;21083803;28;20416;-65
2022/06/27 13:16:12;;;;;;;2.35;1.40;;;;;;;;;;21081787;28;20056;-60
2022/06/27 13:26:15;;;;;;;3.92;1.60;;;;;;;;;;21082561;28;20523;-58
2022/06/27 13:36:17;;;;;;;3.85;1.38;;;;;;;;;;21081203;28;20048;-60
2022/06/27 13:46:20;;;;;;;4.05;1.88;;;;;;;;;;21080344;28;20075;-59
2022/06/27 13:56:22;;;;;;;3.63;1.50;;;;;;;;;;21079771;28;20051;-60
2022/06/27 14:16:46;;;;;;;3.25;1.30;;;;;;;;;;21077966;28;20147;-61
2022/06/27 14:26:48;;;;;;;1.63;1.00;;;;;;;;;;21077279;28;20052;-62
2022/06/27 14:36:50;;;;;;;4.47;1.90;;;;;;;;;;21077121;28;20048;-56
2022/06/27 14:46:54;;;;;;;5.50;2.03;;;;;;;;;;21075602;28;20077;-61
2022/06/27 14:56:58;;;;;;;3.47;1.48;;;;;;;;;;21077551;28;20101;-60
2022/06/27 15:07:00;;;;;;;3.55;1.40;;;;;;;;;;21076014;28;20094;-58
2022/06/27 15:17:02;;;;;;;3.75;1.75;;;;;;;;;;21076085;28;20120;-58
2022/06/27 15:27:04;;;;;;;4.75;1.48;;;;;;;;;;21075472;28;20055;-55
2022/06/27 15:37:07;;;;;;;4.72;1.60;;;;;;;;;;21076008;28;20137;-54
2022/06/27 15:47:10;;;;;;;2.92;1.20;;;;;;;;;;21088108;28;20492;-56
2022/06/27 15:57:12;;;;;;;3.05;1.50;;;;;;;;;;21089968;28;20048;-57
2022/06/27 16:07:14;;;;;;;2.83;1.48;;;;;;;;;;21088229;28;20488;-54
2022/06/27 16:17:18;;;;;;;3.55;1.48;;;;;;;;;;21085487;28;20040;-54
2022/06/27 16:27:20;;;;;;;4.30;1.70;;;;;;;;;;21085514;28;20495;-57
2022/06/27 16:37:22;;;;;;;2.60;1.67;;;;;;;;;;21087798;28;20138;-61
2022/06/27 16:47:27;;;;;;;3.05;1.30;;;;;;;;;;21085356;28;20178;-59
2022/06/27 16:57:29;;;;;;;4.28;1.30;;;;;;;;;;21078306;28;20178;-60
2022/06/27 17:07:31;;;;;;;3.65;1.30;;;;;;;;;;21082964;28;20044;-58
2022/06/27 17:17:33;;;;;;;1.85;1.00;;;;;;;;;;21081482;28;20048;-58
2022/06/27 17:27:37;;;;;;;1.83;1.30;;;;;;;;;;21063574;28;20064;-62
2022/06/27 17:37:40;;;;;;;1.88;1.27;;;;;;;;;;21083588;28;20105;-63
2022/06/27 17:47:43;;;;;;;2.60;1.70;;;;;;;;;;21077633;28;20119;-59
2022/06/27 17:57:45;;;;;;;9.18;1.77;;;;;;;;;;21075143;28;20400;-59
2022/06/27 18:07:49;;;;;;;3.38;1.30;;;;;;;;;;21076262;28;20109;-58
2022/06/27 18:17:51;;;;;;;6.03;1.40;;;;;;;;;;21075150;28;20048;-56
2022/06/27 18:27:53;;;;;;;3.90;3.10;;;;;;;;;;21074662;28;20050;-60
2022/06/27 18:37:56;;;;;;;3.65;1.90;;;;;;;;;;21074700;28;20052;-58
2022/06/27 18:47:58;;;;;;;3.47;1.75;;;;;;;;;;21075269;28;20044;-60
2022/06/27 18:58:00;;;;;;;4.82;1.75;;;;;;;;;;21077158;28;20048;-59
2022/06/27 19:08:02;;;;;;;4.40;2.40;;;;;;;;;;21075404;28;20042;-57
2022/06/27 19:18:04;;;;;;;2.90;1.90;;;;;;;;;;21082294;28;20047;-59
2022/06/27 19:28:07;;;;;;;4.05;1.80;;;;;;;;;;21091773;28;20052;-61
2022/06/27 19:38:11;;;;;;;3.38;1.90;;;;;;;;;;21091529;28;20147;-59
2022/06/27 19:48:13;;;;;;;3.13;1.98;;;;;;;;;;21091113;28;20055;-59
2022/06/27 19:58:18;;;;;;;4.90;2.03;;;;;;;;;;21090618;28;20419;-60
2022/06/27 20:08:19;;;;;;;3.55;2.30;;;;;;;;;;21089044;28;20055;-58
2022/06/27 20:18:22;;;;;;;4.43;2.13;;;;;;;;;;21089209;28;20052;-59
2022/06/27 20:28:25;;;;;;;3.95;2.10;;;;;;;;;;21088158;28;20135;-57
2022/06/27 20:38:29;;;;;;;3.38;1.52;;;;;;;;;;21087509;28;20048;-63
2022/06/27 20:48:31;;;;;;;7.40;4.55;;;;;;;;;;21086511;28;20044;-61
2022/06/27 20:58:37;;;;;;;4.72;1.90;;;;;;;;;;21085530;28;20079;-58
2022/06/27 21:19:01;;;;;;;4.05;1.88;;;;;;;;;;21083841;28;20459;-64
2022/06/27 21:29:03;;;;;;;5.50;2.03;;;;;;;;;;21082803;28;20056;-59
2022/06/27 21:39:06;;;;;;;3.38;1.90;;;;;;;;;;21080329;28;20070;-57
2022/06/27 21:49:08;;;;;;;6.22;1.63;;;;;;;;;;21081315;28;20451;-58
2022/06/27 21:59:12;;;;;;;4.30;1.50;;;;;;;;;;21080201;28;20043;-57
2022/06/27 22:09:14;;;;;;;6.10;1.10;;;;;;;;;;21080322;28;20044;-59
2022/06/27 22:19:16;;;;;;;5.10;0.90;;;;;;;;;;21078726;28;20411;-58
2022/06/27 22:29:19;;;;;;;;;;;;;;;;;;21078667;28;20125;-57
2022/06/27 22:39:21;;;;;;;3.83;0.98;;;;;;;;;;21078490;28;20003;-58
2022/06/27 22:49:23;;;;;;;5.40;0.90;;;;;;;;;;21082408;28;20162;-58
2022/06/27 22:59:26;;;;;;;2.38;1.10;;;;;;;;;;21094754;28;20047;-58
2022/06/27 23:09:28;;;;;;;2.92;0.90;;;;;;;;;;21094323;28;20404;-58
2022/06/27 23:19:30;;;;;;;2.43;0.90;;;;;;;;;;21093751;28;20441;-57
2022/06/27 23:29:33;;;;;;;3.13;1.20;;;;;;;;;;21093051;28;20063;-58
2022/06/27 23:39:35;;;;;;;1.97;0.93;;;;;;;;;;21103701;28;20059;-58
2022/06/27 23:49:37;;;;;;;1.33;0.70;;;;;;;;;;21093849;28;20449;-70
2022/06/27 23:59:39;;;;;;;1.93;0.83;;;;;;;;;;21091006;28;20048;-60
